createdAt,value
2023-01-06T00:02:23.447Z,101127.00
2023-01-06T00:04:50.197Z,101124.44
2023-01-06T00:07:16.746Z,101105.63
2023-01-06T00:09:43.197Z,101135.22
2023-01-06T00:12:09.789Z,101125.31
2023-01-06T00:14:36.299Z,101121.38
2023-01-06T00:17:02.803Z,101126.19
2023-01-06T00:19:29.316Z,101109.31
2023-01-06T00:21:56.341Z,101116.09
2023-01-06T00:24:22.838Z,101114.72
2023-01-06T00:26:49.459Z,101052.44
2023-01-06T00:29:16.044Z,101117.13
2023-01-06T00:31:42.486Z,101119.94
2023-01-06T00:34:10.082Z,101120.53
2023-01-06T00:36:36.707Z,101101.53
2023-01-06T00:39:03.684Z,101103.63
2023-01-06T00:41:48.662Z,101109.00
2023-01-06T00:44:15.336Z,101092.91
2023-01-06T00:46:41.791Z,101110.25
2023-01-06T00:49:08.552Z,101096.91
2023-01-06T00:51:37.344Z,101101.22
2023-01-06T00:54:04.137Z,101096.47
2023-01-06T00:56:31.056Z,101089.81
2023-01-06T00:58:57.566Z,101109.75
2023-01-06T01:01:24.139Z,101087.31
2023-01-06T01:03:50.727Z,101082.09
2023-01-06T01:06:17.686Z,101096.34
2023-01-06T01:08:44.207Z,101092.13
2023-01-06T01:11:35.589Z,101093.47
2023-01-06T01:14:02.435Z,101073.75
2023-01-06T01:16:29.158Z,101068.69
2023-01-06T01:18:55.849Z,101097.59
2023-01-06T01:21:22.344Z,101092.19
2023-01-06T01:23:49.028Z,101098.63
2023-01-06T01:26:15.738Z,101079.34
2023-01-06T01:28:42.380Z,101070.25
2023-01-06T01:31:09.027Z,101085.75
2023-01-06T01:33:35.609Z,101061.09
2023-01-06T01:36:07.142Z,101087.88
2023-01-06T01:38:34.053Z,101091.88
2023-01-06T01:41:01.014Z,101079.13
2023-01-06T01:43:50.759Z,101084.09
2023-01-06T01:46:21.936Z,101076.44
2023-01-06T01:48:48.980Z,101075.31
2023-01-06T01:51:18.618Z,101070.94
2023-01-06T01:53:49.703Z,101073.22
2023-01-06T01:56:19.524Z,101013.03
2023-01-06T01:58:53.041Z,101055.72
2023-01-06T02:01:19.872Z,101071.47
2023-01-06T02:03:46.513Z,101050.28
2023-01-06T02:06:22.149Z,101081.38
2023-01-06T02:08:53.781Z,101071.91
2023-01-06T02:11:20.450Z,101066.72
2023-01-06T02:13:48.190Z,101069.44
2023-01-06T02:16:30.753Z,101068.47
2023-01-06T02:19:28.184Z,101066.16
2023-01-06T02:22:13.458Z,101064.22
2023-01-06T02:24:58.803Z,101063.00
2023-01-06T02:27:31.377Z,101062.78
2023-01-06T02:30:16.578Z,101061.28
2023-01-06T02:33:03.474Z,101057.31
2023-01-06T02:35:46.024Z,101061.81
2023-01-06T02:38:27.092Z,101029.50
2023-01-06T02:41:11.834Z,101051.75
2023-01-06T02:43:53.193Z,101052.09
2023-01-06T02:46:33.581Z,101041.00
2023-01-06T02:49:20.995Z,101036.03
2023-01-06T02:51:53.353Z,101033.13
2023-01-06T02:54:48.990Z,101041.91
2023-01-06T02:57:46.496Z,101025.16
2023-01-06T03:00:19.580Z,101030.72
2023-01-06T03:02:50.494Z,101035.25
2023-01-06T03:05:17.396Z,101026.97
2023-01-06T03:07:46.182Z,101014.63
2023-01-06T03:10:15.164Z,101020.53
2023-01-06T03:12:43.221Z,100977.28
2023-01-06T03:15:10.461Z,101023.94
2023-01-06T03:17:37.069Z,101024.44
2023-01-06T03:20:04.039Z,101003.66
2023-01-06T03:22:31.042Z,101028.41
2023-01-06T03:24:57.587Z,101011.97
2023-01-06T03:27:25.972Z,101000.97
2023-01-06T03:29:52.510Z,100999.25
2023-01-06T03:32:30.089Z,101002.19
2023-01-06T03:35:36.098Z,101007.75
2023-01-06T03:38:15.451Z,101000.25
2023-01-06T03:40:45.795Z,101011.97
2023-01-06T03:43:37.227Z,100971.22
2023-01-06T03:46:16.954Z,101005.06
2023-01-06T03:49:08.521Z,101005.94
2023-01-06T03:52:10.528Z,101001.47
2023-01-06T03:54:57.799Z,100998.31
2023-01-06T03:57:31.044Z,101004.59
2023-01-06T04:00:01.939Z,101010.03
2023-01-06T04:02:29.176Z,100984.41
2023-01-06T04:05:13.828Z,100962.91
2023-01-06T04:07:41.526Z,101001.22
2023-01-06T04:10:09.042Z,100996.75
2023-01-06T04:12:38.512Z,100953.94
2023-01-06T04:15:07.237Z,100984.66
2023-01-06T04:17:34.544Z,100993.84
2023-01-06T04:20:01.493Z,100977.88
2023-01-06T04:22:28.203Z,100979.94
2023-01-06T04:24:55.043Z,100982.84
2023-01-06T04:27:21.600Z,100970.72
2023-01-06T04:29:48.111Z,100968.84
2023-01-06T04:32:14.645Z,100955.03
2023-01-06T04:34:41.317Z,100947.19
2023-01-06T04:37:07.814Z,100953.44
2023-01-06T04:39:34.295Z,100899.44
2023-01-06T04:42:00.814Z,100961.06
2023-01-06T04:44:27.363Z,100957.94
2023-01-06T04:46:53.843Z,100951.63
2023-01-06T04:49:20.344Z,100933.63
2023-01-06T04:51:47.024Z,100954.19
2023-01-06T04:54:13.555Z,100922.16
2023-01-06T04:56:39.995Z,100932.19
2023-01-06T04:59:06.511Z,100927.69
2023-01-06T05:01:33.285Z,100925.88
2023-01-06T05:04:00.160Z,100945.03
2023-01-06T05:06:26.832Z,100911.50
2023-01-06T05:08:53.541Z,100916.09
2023-01-06T05:11:22.142Z,100913.72
2023-01-06T05:13:49.072Z,100913.22
2023-01-06T05:16:26.855Z,100910.94
2023-01-06T05:18:54.454Z,100896.03
2023-01-06T05:21:21.652Z,100866.69
2023-01-06T05:23:48.192Z,100888.78
2023-01-06T05:26:17.667Z,100896.31
2023-01-06T05:28:44.258Z,100893.13
2023-01-06T05:31:11.060Z,100878.03
2023-01-06T05:33:37.895Z,100907.88
2023-01-06T05:36:06.955Z,100908.34
2023-01-06T05:38:34.406Z,100904.84
2023-01-06T05:41:01.198Z,100907.44
2023-01-06T05:43:28.293Z,100910.09
2023-01-06T05:45:55.854Z,100909.09
2023-01-06T05:48:25.785Z,100894.38
2023-01-06T05:50:52.260Z,100910.53
2023-01-06T05:53:18.893Z,100873.94
2023-01-06T05:55:46.156Z,100809.84
2023-01-06T05:58:12.648Z,100904.72
2023-01-06T06:00:39.127Z,100901.38
2023-01-06T06:03:05.789Z,100929.16
2023-01-06T06:05:32.286Z,100884.81
2023-01-06T06:07:58.817Z,100875.00
2023-01-06T06:10:25.305Z,100906.56
2023-01-06T06:12:54.540Z,100937.59
2023-01-06T06:15:20.977Z,100932.31
2023-01-06T06:17:47.759Z,100919.31
2023-01-06T06:20:14.463Z,100919.72
2023-01-06T06:22:41.004Z,100915.38
2023-01-06T06:25:07.882Z,100923.56
2023-01-06T06:27:34.590Z,100912.38
2023-01-06T06:30:01.036Z,100905.91
2023-01-06T06:32:30.711Z,100905.22
2023-01-06T06:34:57.620Z,100911.88
2023-01-06T06:37:24.260Z,100848.47
2023-01-06T06:39:50.951Z,100899.97
2023-01-06T06:42:17.500Z,100860.75
2023-01-06T06:44:44.004Z,100908.91
2023-01-06T06:47:10.454Z,100904.00
2023-01-06T06:49:36.991Z,100903.31
2023-01-06T06:52:03.869Z,100906.56
2023-01-06T06:54:30.315Z,100898.09
2023-01-06T06:56:57.151Z,100923.69
2023-01-06T06:59:23.623Z,100918.19
2023-01-06T07:01:50.234Z,100913.88
2023-01-06T07:04:16.804Z,100921.59
2023-01-06T07:06:43.336Z,100917.34
2023-01-06T07:09:09.819Z,100900.38
2023-01-06T07:11:36.302Z,100904.16
2023-01-06T07:14:02.811Z,100887.81
2023-01-06T07:16:30.763Z,100899.44
2023-01-06T07:18:57.225Z,100908.16
2023-01-06T07:21:23.910Z,100899.09
2023-01-06T07:23:50.679Z,100890.50
2023-01-06T07:26:17.109Z,100881.41
2023-01-06T07:28:43.668Z,100875.50
2023-01-06T07:31:10.193Z,100885.44
2023-01-06T07:33:36.769Z,100876.97
2023-01-06T07:36:03.540Z,100858.53
2023-01-06T07:38:30.040Z,100876.09
2023-01-06T07:41:01.238Z,100866.75
2023-01-06T07:43:27.841Z,100865.59
2023-01-06T07:45:54.569Z,100866.13
2023-01-06T07:48:21.055Z,100881.56
2023-01-06T07:50:47.826Z,100886.00
2023-01-06T07:53:14.326Z,100893.88
2023-01-06T07:55:40.819Z,100877.34
2023-01-06T07:58:08.764Z,100886.78
2023-01-06T08:00:36.420Z,100869.22
2023-01-06T08:03:05.640Z,100892.06
2023-01-06T08:05:32.339Z,100870.56
2023-01-06T08:07:59.216Z,100852.81
2023-01-06T08:10:25.688Z,100867.53
2023-01-06T08:12:52.194Z,100862.94
2023-01-06T08:15:18.864Z,100868.72
2023-01-06T08:17:45.630Z,100869.97
2023-01-06T08:20:12.173Z,100882.25
2023-01-06T08:22:38.738Z,100869.69
2023-01-06T08:25:05.492Z,100879.97
2023-01-06T08:27:31.943Z,100871.31
2023-01-06T08:29:58.441Z,100854.47
2023-01-06T08:32:24.918Z,100895.44
2023-01-06T08:34:51.371Z,100885.25
2023-01-06T08:37:18.177Z,100893.91
2023-01-06T08:39:44.659Z,100903.31
2023-01-06T08:42:11.660Z,100891.44
2023-01-06T08:44:38.236Z,100884.06
2023-01-06T08:47:05.003Z,100895.88
2023-01-06T08:49:31.458Z,100872.56
2023-01-06T08:51:58.008Z,100864.91
2023-01-06T08:54:24.557Z,100879.25
2023-01-06T08:56:51.113Z,100918.22
2023-01-06T08:59:17.810Z,100922.94
2023-01-06T09:01:44.961Z,100928.22
2023-01-06T09:04:12.265Z,100931.47
2023-01-06T09:06:39.975Z,100946.44
2023-01-06T09:09:07.832Z,100937.16
2023-01-06T09:11:34.690Z,100936.78
2023-01-06T09:14:01.298Z,100944.88
2023-01-06T09:16:27.818Z,100936.28
2023-01-06T09:18:54.490Z,100948.25
2023-01-06T09:21:22.770Z,100943.66
2023-01-06T09:23:49.689Z,100933.16
2023-01-06T09:26:17.667Z,100903.66
2023-01-06T09:28:44.603Z,100928.44
2023-01-06T09:31:11.381Z,100972.88
2023-01-06T09:33:37.898Z,100935.44
2023-01-06T09:36:04.815Z,100948.50
2023-01-06T09:38:31.517Z,100966.13
2023-01-06T09:41:07.317Z,100959.84
2023-01-06T09:43:43.044Z,100967.75
2023-01-06T09:46:11.174Z,100965.66
2023-01-06T09:48:49.700Z,100962.00
2023-01-06T09:51:20.462Z,100967.13
2023-01-06T09:53:58.036Z,100977.75
2023-01-06T09:56:25.047Z,100962.03
2023-01-06T09:58:53.826Z,100978.00
2023-01-06T10:01:27.015Z,100976.16
2023-01-06T10:03:53.560Z,100988.50
2023-01-06T10:06:26.322Z,100985.13
2023-01-06T10:08:52.823Z,100983.91
2023-01-06T10:11:19.230Z,100973.28
2023-01-06T10:13:53.803Z,100977.03
2023-01-06T10:17:01.010Z,100977.50
2023-01-06T10:19:33.350Z,100984.38
2023-01-06T10:22:42.049Z,100987.13
2023-01-06T10:25:08.585Z,100989.69
2023-01-06T10:27:44.102Z,100959.97
2023-01-06T10:30:33.572Z,100993.19
2023-01-06T10:33:01.468Z,100988.13
2023-01-06T10:35:28.406Z,100998.66
2023-01-06T10:37:56.220Z,100977.97
2023-01-06T10:40:27.999Z,100987.94
2023-01-06T10:43:00.383Z,100962.63
2023-01-06T10:45:36.430Z,100966.38
2023-01-06T10:48:05.108Z,100974.09
2023-01-06T10:50:33.564Z,100972.44
2023-01-06T10:53:00.018Z,100971.38
2023-01-06T10:55:37.594Z,100975.66
2023-01-06T10:58:14.859Z,100985.44
2023-01-06T11:01:09.183Z,100990.88
2023-01-06T11:03:36.762Z,100998.06
2023-01-06T11:06:29.863Z,100983.56
2023-01-06T11:08:56.552Z,100988.66
2023-01-06T11:11:28.605Z,100998.44
2023-01-06T11:13:58.854Z,100998.78
2023-01-06T11:16:27.527Z,101007.47
2023-01-06T11:18:59.880Z,100976.28
2023-01-06T11:21:43.362Z,101017.78
2023-01-06T11:24:30.144Z,101006.25
2023-01-06T11:26:59.493Z,100985.13
2023-01-06T11:29:32.113Z,100993.09
2023-01-06T11:32:12.339Z,101018.94
2023-01-06T11:34:38.818Z,100990.66
2023-01-06T11:37:05.843Z,101008.97
2023-01-06T11:39:35.094Z,101006.88
2023-01-06T11:42:13.320Z,101020.78
2023-01-06T11:44:41.175Z,101007.22
2023-01-06T11:47:12.277Z,101009.75
2023-01-06T11:49:47.355Z,101006.47
2023-01-06T11:52:22.045Z,101002.75
2023-01-06T11:55:08.845Z,101011.31
2023-01-06T11:57:46.360Z,101005.06
2023-01-06T12:00:16.134Z,101004.97
2023-01-06T12:02:53.146Z,100996.56
2023-01-06T12:05:35.163Z,100965.66
2023-01-06T12:08:04.562Z,100999.00
2023-01-06T12:10:33.083Z,100991.03
2023-01-06T12:12:59.629Z,100992.97
2023-01-06T12:15:29.456Z,100988.75
2023-01-06T12:18:02.611Z,100993.75
2023-01-06T12:20:32.211Z,101005.66
2023-01-06T12:22:59.260Z,100986.13
2023-01-06T12:25:30.143Z,100999.25
2023-01-06T12:28:01.184Z,100980.75
2023-01-06T12:30:33.677Z,101000.09
2023-01-06T12:33:26.000Z,101005.66
2023-01-06T12:35:56.275Z,101013.69
2023-01-06T12:38:32.451Z,100995.31
2023-01-06T12:41:04.645Z,101015.28
2023-01-06T12:43:33.560Z,101010.16
2023-01-06T12:46:16.400Z,101017.63
2023-01-06T12:48:55.107Z,101017.34
2023-01-06T12:51:39.678Z,101003.56
2023-01-06T12:54:21.448Z,101011.88
2023-01-06T12:56:57.805Z,101001.50
2023-01-06T12:59:46.742Z,101020.31
2023-01-06T13:02:31.452Z,101016.22
2023-01-06T13:05:29.074Z,101017.50
2023-01-06T13:08:22.143Z,101010.72
2023-01-06T13:10:51.120Z,101009.28
2023-01-06T13:13:23.540Z,101003.66
2023-01-06T13:15:53.001Z,100975.44
2023-01-06T13:18:51.756Z,101001.69
2023-01-06T13:21:20.405Z,100998.69
2023-01-06T13:23:53.020Z,101002.75
2023-01-06T13:26:44.058Z,101006.38
2023-01-06T13:29:31.648Z,100992.41
2023-01-06T13:32:20.344Z,101002.59
2023-01-06T13:35:01.944Z,101000.78
2023-01-06T13:37:38.586Z,100997.38
2023-01-06T13:40:12.275Z,100959.31
2023-01-06T13:42:39.978Z,100997.16
2023-01-06T13:45:15.383Z,100949.09
2023-01-06T13:47:43.736Z,100993.75
2023-01-06T13:50:13.758Z,100987.84
2023-01-06T13:52:40.950Z,100985.50
2023-01-06T13:55:23.355Z,101002.47
2023-01-06T13:57:50.103Z,100994.16
2023-01-06T14:00:17.956Z,100990.41
2023-01-06T14:02:50.861Z,100994.72
2023-01-06T14:05:21.143Z,100990.19
2023-01-06T14:08:00.419Z,100989.84
2023-01-06T14:10:42.899Z,100984.22
2023-01-06T14:13:25.040Z,100988.63
2023-01-06T14:15:55.493Z,100962.31
2023-01-06T14:18:43.645Z,100993.47
2023-01-06T14:21:13.196Z,101006.53
2023-01-06T14:23:50.043Z,100995.81
2023-01-06T14:26:16.531Z,100995.69
2023-01-06T14:28:43.017Z,100982.94
2023-01-06T14:31:31.465Z,101003.78
2023-01-06T14:33:59.829Z,101003.59
2023-01-06T14:36:27.072Z,101007.94
2023-01-06T14:39:05.488Z,101002.38
2023-01-06T14:41:39.421Z,101001.00
2023-01-06T14:44:13.056Z,101006.25
2023-01-06T14:46:41.895Z,101005.97
2023-01-06T14:49:15.859Z,101014.78
2023-01-06T14:51:44.145Z,101007.75
2023-01-06T14:54:27.178Z,101016.47
2023-01-06T14:56:56.048Z,101016.34
2023-01-06T14:59:22.740Z,101001.78
2023-01-06T15:02:21.682Z,101012.88
2023-01-06T15:04:56.338Z,101019.03
2023-01-06T15:07:23.122Z,101010.38
2023-01-06T15:09:51.109Z,101008.31
2023-01-06T15:12:32.300Z,101015.19
2023-01-06T15:15:20.575Z,101018.09
2023-01-06T15:17:47.398Z,101020.78
2023-01-06T15:20:14.054Z,100976.50
2023-01-06T15:22:42.570Z,101009.47
2023-01-06T15:25:18.991Z,101006.13
2023-01-06T15:27:48.316Z,101015.56
2023-01-06T15:30:18.495Z,101018.72
2023-01-06T15:32:45.613Z,101029.88
2023-01-06T15:35:14.770Z,101023.53
2023-01-06T15:37:42.432Z,101001.22
2023-01-06T15:40:18.006Z,101029.50
2023-01-06T15:42:44.560Z,101013.28
2023-01-06T15:45:30.554Z,101035.31
2023-01-06T15:47:58.514Z,101035.19
2023-01-06T15:50:27.872Z,101038.81
2023-01-06T15:53:04.148Z,101036.03
2023-01-06T15:55:34.069Z,101030.56
2023-01-06T15:58:08.152Z,101042.44
2023-01-06T16:00:49.923Z,101020.78
2023-01-06T16:03:24.391Z,101018.13
2023-01-06T16:06:00.113Z,101025.38
2023-01-06T16:08:30.254Z,101006.28
2023-01-06T16:11:38.040Z,101012.72
2023-01-06T16:14:05.526Z,101019.09
2023-01-06T16:16:35.524Z,101017.44
2023-01-06T16:19:11.333Z,101000.84
2023-01-06T16:21:38.139Z,101019.09
2023-01-06T16:24:05.891Z,101012.00
2023-01-06T16:26:42.868Z,101024.03
2023-01-06T16:29:37.472Z,101027.63
2023-01-06T16:32:29.189Z,101029.53
2023-01-06T16:35:01.613Z,101034.50
2023-01-06T16:37:33.308Z,101036.03
2023-01-06T16:40:00.516Z,101033.03
2023-01-06T16:42:40.640Z,101033.50
2023-01-06T16:45:09.243Z,101036.50
2023-01-06T16:47:35.968Z,100982.69
2023-01-06T16:50:20.048Z,101038.72
2023-01-06T16:52:50.990Z,101032.88
2023-01-06T16:55:19.118Z,101033.84
2023-01-06T16:57:48.959Z,101036.97
2023-01-06T17:00:18.966Z,101037.50
2023-01-06T17:02:45.503Z,101046.03
2023-01-06T17:05:22.781Z,101047.66
2023-01-06T17:07:49.517Z,101052.47
2023-01-06T17:10:20.173Z,101057.72
2023-01-06T17:13:12.519Z,101063.72
2023-01-06T17:15:39.529Z,101053.59
2023-01-06T17:18:25.008Z,101052.72
2023-01-06T17:20:54.388Z,101045.94
2023-01-06T17:23:21.019Z,101032.91
2023-01-06T17:25:48.477Z,101051.97
2023-01-06T17:28:21.974Z,101056.34
2023-01-06T17:30:49.661Z,101050.50
2023-01-06T17:33:16.719Z,101048.34
2023-01-06T17:35:50.801Z,101050.53
2023-01-06T17:38:23.977Z,101049.59
2023-01-06T17:40:51.493Z,101055.38
2023-01-06T17:43:23.154Z,101054.31
2023-01-06T17:45:49.846Z,101051.50
2023-01-06T17:48:16.403Z,101059.03
2023-01-06T17:50:50.470Z,101056.66
2023-01-06T17:53:38.470Z,101061.97
2023-01-06T17:56:07.462Z,101059.41
2023-01-06T17:58:36.988Z,101047.75
2023-01-06T18:01:07.325Z,101018.63
2023-01-06T18:03:35.385Z,101050.38
2023-01-06T18:06:26.349Z,101049.78
2023-01-06T18:09:10.056Z,101025.44
2023-01-06T18:11:39.274Z,101037.44
2023-01-06T18:14:24.027Z,101049.84
2023-01-06T18:16:54.233Z,101067.06
2023-01-06T18:19:37.374Z,101065.81
2023-01-06T18:22:24.489Z,101059.16
2023-01-06T18:24:52.989Z,101041.69
2023-01-06T18:27:23.292Z,101058.44
2023-01-06T18:29:50.278Z,101053.47
2023-01-06T18:32:27.175Z,101062.78
2023-01-06T18:34:59.036Z,101043.56
2023-01-06T18:37:28.769Z,101064.47
2023-01-06T18:40:07.695Z,101051.94
2023-01-06T18:42:37.003Z,101052.75
2023-01-06T18:45:09.483Z,101059.53
2023-01-06T18:47:37.827Z,101062.78
2023-01-06T18:50:42.756Z,101077.25
2023-01-06T18:53:09.217Z,101083.69
2023-01-06T18:56:02.283Z,101073.97
2023-01-06T18:58:29.926Z,101070.47
2023-01-06T19:00:59.079Z,101082.34
2023-01-06T19:03:42.043Z,101077.88
2023-01-06T19:06:09.045Z,101074.38
2023-01-06T19:08:38.347Z,101063.00
2023-01-06T19:11:13.776Z,101071.59
2023-01-06T19:13:40.361Z,101081.03
2023-01-06T19:16:33.410Z,101079.84
2023-01-06T19:19:16.136Z,101054.03
2023-01-06T19:21:43.761Z,101044.03
2023-01-06T19:24:28.890Z,101071.78
2023-01-06T19:26:58.369Z,101072.22
2023-01-06T19:29:33.744Z,101045.94
2023-01-06T19:32:13.088Z,101070.25
2023-01-06T19:34:39.664Z,101065.16
2023-01-06T19:37:16.299Z,101058.75
2023-01-06T19:39:47.474Z,101058.41
2023-01-06T19:42:17.100Z,101048.94
2023-01-06T19:44:43.644Z,101057.09
2023-01-06T19:47:23.799Z,101055.16
2023-01-06T19:49:55.608Z,101060.69
2023-01-06T19:52:32.726Z,101044.59
2023-01-06T19:55:12.099Z,101036.25
2023-01-06T19:57:39.934Z,101039.41
2023-01-06T20:00:21.088Z,101003.59
2023-01-06T20:02:49.220Z,101015.47
2023-01-06T20:05:15.862Z,101042.09
2023-01-06T20:07:42.379Z,101001.69
2023-01-06T20:10:09.121Z,101014.84
2023-01-06T20:12:35.636Z,100994.09
2023-01-06T20:15:03.571Z,101011.97
2023-01-06T20:17:31.974Z,101000.94
2023-01-06T20:19:58.702Z,101020.69
2023-01-06T20:22:26.231Z,101033.84
2023-01-06T20:24:52.937Z,101019.84
2023-01-06T20:27:19.432Z,101028.53
2023-01-06T20:29:45.953Z,101020.28
2023-01-06T20:32:12.398Z,100999.75
2023-01-06T20:34:39.004Z,101021.13
2023-01-06T20:37:05.520Z,101024.66
2023-01-06T20:39:32.763Z,100992.38
2023-01-06T20:42:00.340Z,100994.72
2023-01-06T20:44:26.866Z,100988.59
2023-01-06T20:46:53.354Z,101013.25
2023-01-06T20:49:20.514Z,101014.00
2023-01-06T20:51:47.026Z,101024.28
2023-01-06T20:54:13.548Z,101014.75
2023-01-06T20:56:40.258Z,100993.06
2023-01-06T20:59:06.820Z,101019.97
2023-01-06T21:01:33.632Z,101003.88
2023-01-06T21:04:00.384Z,101026.50
2023-01-06T21:06:27.134Z,101027.47
2023-01-06T21:08:53.747Z,101021.63
2023-01-06T21:11:20.404Z,101024.63
2023-01-06T21:13:46.981Z,101033.13
2023-01-06T21:16:13.530Z,100992.88
2023-01-06T21:18:40.110Z,101018.88
2023-01-06T21:21:06.915Z,101017.53
2023-01-06T21:23:33.324Z,101004.75
2023-01-06T21:25:59.801Z,101008.44
2023-01-06T21:28:26.347Z,101013.66
2023-01-06T21:30:52.907Z,101005.06
2023-01-06T21:33:21.565Z,101029.38
2023-01-06T21:35:48.412Z,101025.75
2023-01-06T21:38:15.538Z,101026.34
2023-01-06T21:40:42.474Z,101032.88
2023-01-06T21:43:09.167Z,101016.44
2023-01-06T21:45:42.813Z,101016.66
2023-01-06T21:48:10.983Z,101018.38
2023-01-06T21:50:46.785Z,101006.69
2023-01-06T21:53:14.109Z,101028.19
2023-01-06T21:55:41.479Z,101004.19
2023-01-06T21:58:08.084Z,101028.41
2023-01-06T22:00:34.825Z,101030.34
2023-01-06T22:03:01.454Z,101022.94
2023-01-06T22:05:28.463Z,100993.75
2023-01-06T22:07:55.310Z,101005.66
2023-01-06T22:10:23.408Z,101007.13
2023-01-06T22:12:52.692Z,100995.41
2023-01-06T22:15:19.448Z,101019.44
2023-01-06T22:17:46.080Z,101027.69
2023-01-06T22:20:13.477Z,101016.19
2023-01-06T22:22:41.293Z,101036.41
2023-01-06T22:25:08.261Z,101028.34
2023-01-06T22:27:34.840Z,101024.66
2023-01-06T22:30:01.436Z,101010.16
2023-01-06T22:32:28.456Z,101018.16
2023-01-06T22:34:55.064Z,100980.88
2023-01-06T22:37:21.734Z,100997.22
2023-01-06T22:39:49.198Z,101009.56
2023-01-06T22:42:16.188Z,101022.97
2023-01-06T22:44:42.742Z,101029.50
2023-01-06T22:47:09.341Z,101000.50
2023-01-06T22:49:35.839Z,101020.09
2023-01-06T22:52:02.596Z,101029.22
2023-01-06T22:54:29.125Z,101023.00
2023-01-06T22:56:55.644Z,101022.03
2023-01-06T22:59:22.494Z,101018.25
2023-01-06T23:01:49.134Z,101022.34
2023-01-06T23:04:16.048Z,100972.81
2023-01-06T23:06:42.587Z,101018.13
2023-01-06T23:09:09.086Z,101013.53
2023-01-06T23:11:41.359Z,100977.53
2023-01-06T23:14:09.247Z,101014.41
2023-01-06T23:16:36.629Z,100999.75
2023-01-06T23:19:03.327Z,101012.94
2023-01-06T23:21:31.188Z,100981.50
2023-01-06T23:23:57.959Z,101022.00
2023-01-06T23:26:27.386Z,101006.66
2023-01-06T23:28:55.077Z,101013.78
2023-01-06T23:31:25.673Z,101016.31
2023-01-06T23:33:55.809Z,101016.44
2023-01-06T23:36:23.399Z,101008.94
2023-01-06T23:38:50.988Z,101010.47
2023-01-06T23:41:19.719Z,101006.00
2023-01-06T23:43:47.201Z,101000.72
2023-01-06T23:46:16.244Z,100976.28
2023-01-06T23:48:43.387Z,100985.13
2023-01-06T23:51:10.799Z,101009.91
2023-01-06T23:53:38.038Z,101004.81
2023-01-06T23:56:06.019Z,101009.66
2023-01-06T23:58:37.261Z,100993.66
